Bordeaux, Wyoming
Current Conditions -  °F | °C
As of 12:35 PM on Friday 28 Nov 2014 (Local Time) from KGUR Reporting Station
Clear Clear  
Wind Chill: 69°   Ceiling: Unl
Heat Index: 69°   Visibility: 10mi
Dew Point: 18°   Wind: 16mph
Humidity: 14%   Direction: 260°W
Pressure: 29.77"   Gusts: 24mph
Location:  42.0178°N, 105.098°W
Report Text: KGUR 281935Z AUTO 26014G21KT 10SM CLR 21/M08 A2977 RMK AO2 T02071080
Loading
Personal Weather Stations






























Interactive Weather Map New forecast layout! Learn more

10-Day Weather Forecast

Advertisements
Track Severe Weather on mobile